sensor_id;sensor_type;location;lat;lon;timestamp;temperature;humidity
26224;DHT22;14820;48.682;8.890;2023-09-12T00:00:56;17.60;99.90
26224;DHT22;14820;48.682;8.890;2023-09-12T00:03:23;17.60;99.90
26224;DHT22;14820;48.682;8.890;2023-09-12T00:05:53;17.60;99.90
26224;DHT22;14820;48.682;8.890;2023-09-12T00:08:18;17.60;99.90
26224;DHT22;14820;48.682;8.890;2023-09-12T00:10:44;17.60;99.90
26224;DHT22;14820;48.682;8.890;2023-09-12T00:13:10;17.50;99.90
26224;DHT22;14820;48.682;8.890;2023-09-12T00:15:36;17.60;99.90
26224;DHT22;14820;48.682;8.890;2023-09-12T00:18:01;17.50;99.90
26224;DHT22;14820;48.682;8.890;2023-09-12T00:20:28;17.50;99.90
26224;DHT22;14820;48.682;8.890;2023-09-12T00:22:53;17.50;99.90
26224;DHT22;14820;48.682;8.890;2023-09-12T00:25:20;17.50;99.90
26224;DHT22;14820;48.682;8.890;2023-09-12T00:27:46;17.50;99.90
26224;DHT22;14820;48.682;8.890;2023-09-12T00:30:14;17.40;99.90
26224;DHT22;14820;48.682;8.890;2023-09-12T00:32:40;17.40;99.90
26224;DHT22;14820;48.682;8.890;2023-09-12T00:35:06;17.40;99.90
26224;DHT22;14820;48.682;8.890;2023-09-12T00:37:32;17.30;99.90
26224;DHT22;14820;48.682;8.890;2023-09-12T00:39:58;17.30;99.90
26224;DHT22;14820;48.682;8.890;2023-09-12T00:42:26;17.20;99.90
26224;DHT22;14820;48.682;8.890;2023-09-12T00:44:52;17.30;99.90
26224;DHT22;14820;48.682;8.890;2023-09-12T00:47:19;17.30;99.90
26224;DHT22;14820;48.682;8.890;2023-09-12T00:49:46;17.20;99.90
26224;DHT22;14820;48.682;8.890;2023-09-12T00:52:13;17.20;99.90
26224;DHT22;14820;48.682;8.890;2023-09-12T00:54:40;17.20;99.90
26224;DHT22;14820;48.682;8.890;2023-09-12T00:57:06;17.10;99.90
26224;DHT22;14820;48.682;8.890;2023-09-12T00:59:32;17.20;99.90
26224;DHT22;14820;48.682;8.890;2023-09-12T01:01:59;17.20;99.90
26224;DHT22;14820;48.682;8.890;2023-09-12T01:04:26;17.20;99.90
26224;DHT22;14820;48.682;8.890;2023-09-12T01:06:52;17.20;99.90
26224;DHT22;14820;48.682;8.890;2023-09-12T02:25:54;16.60;99.90
26224;DHT22;14820;48.682;8.890;2023-09-12T02:28:20;16.70;99.90
26224;DHT22;14820;48.682;8.890;2023-09-12T02:30:46;16.60;99.90
26224;DHT22;14820;48.682;8.890;2023-09-12T02:33:12;16.60;99.90
26224;DHT22;14820;48.682;8.890;2023-09-12T02:35:37;16.60;99.90
26224;DHT22;14820;48.682;8.890;2023-09-12T02:38:03;16.70;99.90
26224;DHT22;14820;48.682;8.890;2023-09-12T02:40:29;16.80;99.90
26224;DHT22;14820;48.682;8.890;2023-09-12T02:42:54;16.70;99.90
26224;DHT22;14820;48.682;8.890;2023-09-12T02:45:20;16.60;99.90
26224;DHT22;14820;48.682;8.890;2023-09-12T02:47:46;16.60;99.90
26224;DHT22;14820;48.682;8.890;2023-09-12T02:50:11;16.50;99.90
26224;DHT22;14820;48.682;8.890;2023-09-12T02:52:37;16.50;99.90
26224;DHT22;14820;48.682;8.890;2023-09-12T02:55:03;16.50;99.90
26224;DHT22;14820;48.682;8.890;2023-09-12T02:57:29;16.50;99.90
26224;DHT22;14820;48.682;8.890;2023-09-12T02:59:54;16.60;99.90
26224;DHT22;14820;48.682;8.890;2023-09-12T03:02:20;16.70;99.90
26224;DHT22;14820;48.682;8.890;2023-09-12T03:04:46;16.70;99.90
26224;DHT22;14820;48.682;8.890;2023-09-12T03:07:12;16.70;99.90
26224;DHT22;14820;48.682;8.890;2023-09-12T03:09:37;16.70;99.90
26224;DHT22;14820;48.682;8.890;2023-09-12T03:12:04;16.70;99.90
26224;DHT22;14820;48.682;8.890;2023-09-12T03:14:30;16.60;99.90
26224;DHT22;14820;48.682;8.890;2023-09-12T03:16:56;16.60;99.90
26224;DHT22;14820;48.682;8.890;2023-09-12T03:19:22;16.50;99.90
26224;DHT22;14820;48.682;8.890;2023-09-12T03:21:47;16.40;99.90
26224;DHT22;14820;48.682;8.890;2023-09-12T03:24:13;16.40;99.90
26224;DHT22;14820;48.682;8.890;2023-09-12T03:26:39;16.40;99.90
26224;DHT22;14820;48.682;8.890;2023-09-12T03:29:04;16.40;99.90
26224;DHT22;14820;48.682;8.890;2023-09-12T03:31:30;16.40;99.90
26224;DHT22;14820;48.682;8.890;2023-09-12T03:33:56;16.40;99.90
26224;DHT22;14820;48.682;8.890;2023-09-12T03:36:22;16.40;99.90
26224;DHT22;14820;48.682;8.890;2023-09-12T03:38:48;16.50;99.90
26224;DHT22;14820;48.682;8.890;2023-09-12T03:41:13;16.40;99.90
26224;DHT22;14820;48.682;8.890;2023-09-12T03:43:39;16.40;99.90
26224;DHT22;14820;48.682;8.890;2023-09-12T03:46:05;16.50;99.90
26224;DHT22;14820;48.682;8.890;2023-09-12T03:48:30;16.40;99.90
26224;DHT22;14820;48.682;8.890;2023-09-12T03:50:57;16.30;99.90
26224;DHT22;14820;48.682;8.890;2023-09-12T03:53:23;16.40;99.90
26224;DHT22;14820;48.682;8.890;2023-09-12T03:55:48;16.40;99.90
26224;DHT22;14820;48.682;8.890;2023-09-12T03:58:14;16.40;99.90
26224;DHT22;14820;48.682;8.890;2023-09-12T04:00:40;16.40;99.90
26224;DHT22;14820;48.682;8.890;2023-09-12T04:03:05;16.40;99.90
26224;DHT22;14820;48.682;8.890;2023-09-12T04:05:31;16.40;99.90
26224;DHT22;14820;48.682;8.890;2023-09-12T04:07:57;16.40;99.90
26224;DHT22;14820;48.682;8.890;2023-09-12T04:10:23;16.40;99.90
26224;DHT22;14820;48.682;8.890;2023-09-12T04:12:48;16.40;99.90
26224;DHT22;14820;48.682;8.890;2023-09-12T04:15:14;16.40;99.90
26224;DHT22;14820;48.682;8.890;2023-09-12T04:17:40;16.30;99.90
26224;DHT22;14820;48.682;8.890;2023-09-12T04:20:06;16.30;99.90
26224;DHT22;14820;48.682;8.890;2023-09-12T04:22:33;16.40;99.90
26224;DHT22;14820;48.682;8.890;2023-09-12T04:24:58;16.40;99.90
26224;DHT22;14820;48.682;8.890;2023-09-12T04:27:24;16.40;99.90
26224;DHT22;14820;48.682;8.890;2023-09-12T04:29:50;16.30;99.90
26224;DHT22;14820;48.682;8.890;2023-09-12T04:32:15;16.30;99.90
26224;DHT22;14820;48.682;8.890;2023-09-12T04:34:48;16.30;99.90
26224;DHT22;14820;48.682;8.890;2023-09-12T04:37:14;16.30;99.90
26224;DHT22;14820;48.682;8.890;2023-09-12T04:39:40;16.30;99.90
26224;DHT22;14820;48.682;8.890;2023-09-12T04:42:05;16.30;99.90
26224;DHT22;14820;48.682;8.890;2023-09-12T04:44:35;16.20;99.90
26224;DHT22;14820;48.682;8.890;2023-09-12T04:47:01;16.20;99.90
26224;DHT22;14820;48.682;8.890;2023-09-12T04:49:28;16.20;99.90
26224;DHT22;14820;48.682;8.890;2023-09-12T04:51:54;16.20;99.90
26224;DHT22;14820;48.682;8.890;2023-09-12T04:54:19;16.20;99.90
26224;DHT22;14820;48.682;8.890;2023-09-12T04:56:45;16.30;99.90
26224;DHT22;14820;48.682;8.890;2023-09-12T04:59:10;16.40;99.90
26224;DHT22;14820;48.682;8.890;2023-09-12T05:01:36;16.40;99.90
26224;DHT22;14820;48.682;8.890;2023-09-12T05:04:02;16.30;99.90
26224;DHT22;14820;48.682;8.890;2023-09-12T05:06:28;16.30;99.90
26224;DHT22;14820;48.682;8.890;2023-09-12T05:08:54;16.30;99.90
26224;DHT22;14820;48.682;8.890;2023-09-12T05:11:22;16.30;99.90
26224;DHT22;14820;48.682;8.890;2023-09-12T05:13:49;16.30;99.90
26224;DHT22;14820;48.682;8.890;2023-09-12T05:16:14;16.40;99.90
26224;DHT22;14820;48.682;8.890;2023-09-12T05:18:40;16.40;99.90
26224;DHT22;14820;48.682;8.890;2023-09-12T05:21:06;16.40;99.90
26224;DHT22;14820;48.682;8.890;2023-09-12T05:23:32;16.50;99.90
26224;DHT22;14820;48.682;8.890;2023-09-12T05:25:57;16.50;99.90
26224;DHT22;14820;48.682;8.890;2023-09-12T05:28:23;16.60;99.90
26224;DHT22;14820;48.682;8.890;2023-09-12T05:30:49;16.70;99.90
26224;DHT22;14820;48.682;8.890;2023-09-12T05:33:16;16.80;99.90
26224;DHT22;14820;48.682;8.890;2023-09-12T05:35:41;16.80;99.90
26224;DHT22;14820;48.682;8.890;2023-09-12T05:38:07;16.90;99.90
26224;DHT22;14820;48.682;8.890;2023-09-12T05:40:33;16.90;99.90
26224;DHT22;14820;48.682;8.890;2023-09-12T05:42:58;17.00;99.90
26224;DHT22;14820;48.682;8.890;2023-09-12T05:45:24;17.00;99.90
26224;DHT22;14820;48.682;8.890;2023-09-12T05:47:50;16.90;99.90
26224;DHT22;14820;48.682;8.890;2023-09-12T05:50:16;17.00;99.90
26224;DHT22;14820;48.682;8.890;2023-09-12T05:52:42;17.00;99.90
26224;DHT22;14820;48.682;8.890;2023-09-12T05:55:10;17.10;99.90
26224;DHT22;14820;48.682;8.890;2023-09-12T05:57:36;17.10;99.90
26224;DHT22;14820;48.682;8.890;2023-09-12T06:00:01;17.10;99.90
26224;DHT22;14820;48.682;8.890;2023-09-12T06:02:35;17.20;99.90
26224;DHT22;14820;48.682;8.890;2023-09-12T06:05:01;17.30;99.90
26224;DHT22;14820;48.682;8.890;2023-09-12T06:07:27;17.30;99.90
26224;DHT22;14820;48.682;8.890;2023-09-12T06:09:53;17.20;99.90
26224;DHT22;14820;48.682;8.890;2023-09-12T06:12:19;17.30;99.90
26224;DHT22;14820;48.682;8.890;2023-09-12T06:14:44;17.30;99.90
26224;DHT22;14820;48.682;8.890;2023-09-12T06:17:10;17.30;99.90
26224;DHT22;14820;48.682;8.890;2023-09-12T06:19:36;17.40;99.90
26224;DHT22;14820;48.682;8.890;2023-09-12T06:22:01;17.40;99.90
26224;DHT22;14820;48.682;8.890;2023-09-12T06:24:27;17.40;99.90
26224;DHT22;14820;48.682;8.890;2023-09-12T06:30:15;17.40;99.90
26224;DHT22;14820;48.682;8.890;2023-09-12T06:36:03;17.60;99.90
26224;DHT22;14820;48.682;8.890;2023-09-12T06:38:29;17.70;99.90
26224;DHT22;14820;48.682;8.890;2023-09-12T06:40:55;17.70;99.90
26224;DHT22;14820;48.682;8.890;2023-09-12T06:43:21;17.80;99.90
26224;DHT22;14820;48.682;8.890;2023-09-12T06:45:47;17.80;99.90
26224;DHT22;14820;48.682;8.890;2023-09-12T06:48:13;17.90;99.90
26224;DHT22;14820;48.682;8.890;2023-09-12T06:50:39;17.90;99.90
26224;DHT22;14820;48.682;8.890;2023-09-12T06:53:05;18.00;99.90
26224;DHT22;14820;48.682;8.890;2023-09-12T06:55:35;18.10;99.90
26224;DHT22;14820;48.682;8.890;2023-09-12T06:58:01;18.10;99.90
26224;DHT22;14820;48.682;8.890;2023-09-12T07:00:26;18.20;99.90
26224;DHT22;14820;48.682;8.890;2023-09-12T07:02:52;18.30;99.90
26224;DHT22;14820;48.682;8.890;2023-09-12T07:17:29;19.00;99.90
26224;DHT22;14820;48.682;8.890;2023-09-12T07:22:21;19.20;99.90
26224;DHT22;14820;48.682;8.890;2023-09-12T07:24:46;19.40;99.90
26224;DHT22;14820;48.682;8.890;2023-09-12T07:27:12;19.50;99.90
26224;DHT22;14820;48.682;8.890;2023-09-12T07:32:04;19.70;99.90
26224;DHT22;14820;48.682;8.890;2023-09-12T07:44:14;19.50;99.90
26224;DHT22;14820;48.682;8.890;2023-09-12T07:46:42;20.40;99.90
26224;DHT22;14820;48.682;8.890;2023-09-12T07:49:08;19.40;99.90
26224;DHT22;14820;48.682;8.890;2023-09-12T07:51:35;20.30;99.90
26224;DHT22;14820;48.682;8.890;2023-09-12T07:54:01;20.30;99.90
26224;DHT22;14820;48.682;8.890;2023-09-12T07:56:26;20.30;99.90
26224;DHT22;14820;48.682;8.890;2023-09-12T07:58:52;20.30;99.90
26224;DHT22;14820;48.682;8.890;2023-09-12T08:01:18;20.20;99.90
26224;DHT22;14820;48.682;8.890;2023-09-12T08:03:44;20.20;99.90
26224;DHT22;14820;48.682;8.890;2023-09-12T08:06:09;20.20;99.90
26224;DHT22;14820;48.682;8.890;2023-09-12T08:08:35;20.30;99.90
26224;DHT22;14820;48.682;8.890;2023-09-12T08:11:01;20.30;99.90
26224;DHT22;14820;48.682;8.890;2023-09-12T08:13:29;20.40;99.90
26224;DHT22;14820;48.682;8.890;2023-09-12T08:15:55;20.40;99.90
26224;DHT22;14820;48.682;8.890;2023-09-12T08:20:49;20.80;99.90
26224;DHT22;14820;48.682;8.890;2023-09-12T08:23:15;20.80;99.90
26224;DHT22;14820;48.682;8.890;2023-09-12T08:25:40;21.00;99.90
26224;DHT22;14820;48.682;8.890;2023-09-12T08:28:06;21.10;99.90
26224;DHT22;14820;48.682;8.890;2023-09-12T08:30:32;21.20;99.90
26224;DHT22;14820;48.682;8.890;2023-09-12T08:45:14;22.10;99.90
26224;DHT22;14820;48.682;8.890;2023-09-12T08:47:44;22.20;99.90
26224;DHT22;14820;48.682;8.890;2023-09-12T08:52:39;22.40;99.90
26224;DHT22;14820;48.682;8.890;2023-09-12T09:00:01;22.90;99.90
26224;DHT22;14820;48.682;8.890;2023-09-12T09:05:07;23.00;99.90
26224;DHT22;14820;48.682;8.890;2023-09-12T09:07:36;23.20;99.90
26224;DHT22;14820;48.682;8.890;2023-09-12T09:10:04;23.30;99.90
26224;DHT22;14820;48.682;8.890;2023-09-12T09:35:11;24.60;99.90
26224;DHT22;14820;48.682;8.890;2023-09-12T09:37:38;24.70;99.90
26224;DHT22;14820;48.682;8.890;2023-09-12T09:40:07;24.70;99.90
26224;DHT22;14820;48.682;8.890;2023-09-12T09:42:33;24.90;99.90
26224;DHT22;14820;48.682;8.890;2023-09-12T09:44:59;25.00;99.90
26224;DHT22;14820;48.682;8.890;2023-09-12T10:17:02;26.10;99.90
26224;DHT22;14820;48.682;8.890;2023-09-12T10:20:02;26.00;99.90
26224;DHT22;14820;48.682;8.890;2023-09-12T10:22:34;26.00;99.90
26224;DHT22;14820;48.682;8.890;2023-09-12T10:25:02;26.10;99.90
26224;DHT22;14820;48.682;8.890;2023-09-12T10:29:55;26.20;99.90
26224;DHT22;14820;48.682;8.890;2023-09-12T10:34:52;26.50;99.90
26224;DHT22;14820;48.682;8.890;2023-09-12T10:37:22;26.50;99.90
26224;DHT22;14820;48.682;8.890;2023-09-12T10:39:49;26.70;99.90
26224;DHT22;14820;48.682;8.890;2023-09-12T10:42:16;26.90;99.90
26224;DHT22;14820;48.682;8.890;2023-09-12T10:44:43;27.00;99.90
26224;DHT22;14820;48.682;8.890;2023-09-12T10:47:10;27.00;99.90
26224;DHT22;14820;48.682;8.890;2023-09-12T10:49:37;27.10;99.90
26224;DHT22;14820;48.682;8.890;2023-09-12T10:52:03;27.10;99.90
26224;DHT22;14820;48.682;8.890;2023-09-12T10:54:46;27.20;99.90
26224;DHT22;14820;48.682;8.890;2023-09-12T10:57:12;27.20;99.90
26224;DHT22;14820;48.682;8.890;2023-09-12T11:00:09;27.40;99.90
26224;DHT22;14820;48.682;8.890;2023-09-12T11:12:44;27.90;99.90
26224;DHT22;14820;48.682;8.890;2023-09-12T11:15:11;27.80;99.90
26224;DHT22;14820;48.682;8.890;2023-09-12T11:17:40;27.90;99.90
26224;DHT22;14820;48.682;8.890;2023-09-12T11:20:06;27.90;99.90
26224;DHT22;14820;48.682;8.890;2023-09-12T11:22:44;27.90;99.90
26224;DHT22;14820;48.682;8.890;2023-09-12T11:25:26;28.00;99.90
26224;DHT22;14820;48.682;8.890;2023-09-12T11:30:21;28.20;99.90
26224;DHT22;14820;48.682;8.890;2023-09-12T11:32:50;28.10;99.90
26224;DHT22;14820;48.682;8.890;2023-09-12T11:40:17;28.30;99.90
26224;DHT22;14820;48.682;8.890;2023-09-12T11:42:44;28.30;99.90
26224;DHT22;14820;48.682;8.890;2023-09-12T11:45:15;28.30;99.90
26224;DHT22;14820;48.682;8.890;2023-09-12T11:47:44;28.30;99.90
26224;DHT22;14820;48.682;8.890;2023-09-12T11:50:37;28.20;99.90
26224;DHT22;14820;48.682;8.890;2023-09-12T11:53:06;28.20;99.90
26224;DHT22;14820;48.682;8.890;2023-09-12T11:55:43;28.20;99.90
26224;DHT22;14820;48.682;8.890;2023-09-12T12:08:07;28.80;99.90
26224;DHT22;14820;48.682;8.890;2023-09-12T12:10:33;28.80;99.90
26224;DHT22;14820;48.682;8.890;2023-09-12T12:12:59;28.80;99.90
26224;DHT22;14820;48.682;8.890;2023-09-12T12:17:56;28.80;99.90
26224;DHT22;14820;48.682;8.890;2023-09-12T12:20:22;29.10;99.90
26224;DHT22;14820;48.682;8.890;2023-09-12T12:25:17;29.10;99.90
26224;DHT22;14820;48.682;8.890;2023-09-12T12:27:43;29.10;99.90
26224;DHT22;14820;48.682;8.890;2023-09-12T12:30:11;28.90;99.90
26224;DHT22;14820;48.682;8.890;2023-09-12T12:32:45;28.80;99.90
26224;DHT22;14820;48.682;8.890;2023-09-12T12:35:21;28.70;99.90
26224;DHT22;14820;48.682;8.890;2023-09-12T12:37:53;28.90;99.90
26224;DHT22;14820;48.682;8.890;2023-09-12T12:40:19;29.10;99.70
26224;DHT22;14820;48.682;8.890;2023-09-12T12:42:45;29.30;99.90
26224;DHT22;14820;48.682;8.890;2023-09-12T12:45:16;29.40;99.90
26224;DHT22;14820;48.682;8.890;2023-09-12T12:47:42;29.30;99.90
26224;DHT22;14820;48.682;8.890;2023-09-12T12:50:17;29.20;99.90
26224;DHT22;14820;48.682;8.890;2023-09-12T12:52:47;29.10;99.90
26224;DHT22;14820;48.682;8.890;2023-09-12T12:55:14;29.10;99.90
26224;DHT22;14820;48.682;8.890;2023-09-12T12:57:41;29.00;99.90
26224;DHT22;14820;48.682;8.890;2023-09-12T13:00:13;29.00;99.90
26224;DHT22;14820;48.682;8.890;2023-09-12T13:02:42;29.00;99.90
26224;DHT22;14820;48.682;8.890;2023-09-12T13:05:29;29.00;99.90
26224;DHT22;14820;48.682;8.890;2023-09-12T13:07:56;29.00;99.90
26224;DHT22;14820;48.682;8.890;2023-09-12T13:10:22;28.90;99.90
26224;DHT22;14820;48.682;8.890;2023-09-12T13:12:49;28.90;99.90
26224;DHT22;14820;48.682;8.890;2023-09-12T13:15:16;28.90;99.90
26224;DHT22;14820;48.682;8.890;2023-09-12T13:17:43;29.00;99.90
26224;DHT22;14820;48.682;8.890;2023-09-12T13:20:09;28.90;99.90
26224;DHT22;14820;48.682;8.890;2023-09-12T13:22:36;28.80;99.90
26224;DHT22;14820;48.682;8.890;2023-09-12T13:25:01;28.90;99.90
26224;DHT22;14820;48.682;8.890;2023-09-12T13:27:28;28.90;99.90
26224;DHT22;14820;48.682;8.890;2023-09-12T13:29:53;28.80;99.90
26224;DHT22;14820;48.682;8.890;2023-09-12T13:32:19;28.80;99.90
26224;DHT22;14820;48.682;8.890;2023-09-12T13:34:45;28.80;99.90
26224;DHT22;14820;48.682;8.890;2023-09-12T13:37:10;28.80;99.90
26224;DHT22;14820;48.682;8.890;2023-09-12T13:39:36;28.90;99.90
26224;DHT22;14820;48.682;8.890;2023-09-12T13:42:02;28.90;99.90
26224;DHT22;14820;48.682;8.890;2023-09-12T13:44:30;28.90;99.90
26224;DHT22;14820;48.682;8.890;2023-09-12T13:46:55;28.90;99.90
26224;DHT22;14820;48.682;8.890;2023-09-12T13:49:21;28.90;99.90
26224;DHT22;14820;48.682;8.890;2023-09-12T13:51:47;28.80;99.90
26224;DHT22;14820;48.682;8.890;2023-09-12T13:54:12;28.80;99.90
26224;DHT22;14820;48.682;8.890;2023-09-12T13:56:43;28.80;99.90
26224;DHT22;14820;48.682;8.890;2023-09-12T13:59:09;28.80;99.90
26224;DHT22;14820;48.682;8.890;2023-09-12T14:01:35;28.80;99.90
26224;DHT22;14820;48.682;8.890;2023-09-12T14:04:04;28.80;99.90
26224;DHT22;14820;48.682;8.890;2023-09-12T14:06:30;28.80;99.90
26224;DHT22;14820;48.682;8.890;2023-09-12T14:08:55;28.80;99.90
26224;DHT22;14820;48.682;8.890;2023-09-12T14:11:21;28.80;99.90
26224;DHT22;14820;48.682;8.890;2023-09-12T14:13:47;28.90;99.90
26224;DHT22;14820;48.682;8.890;2023-09-12T14:16:13;28.90;99.90
26224;DHT22;14820;48.682;8.890;2023-09-12T14:18:39;28.90;99.90
26224;DHT22;14820;48.682;8.890;2023-09-12T14:21:04;28.90;99.90
26224;DHT22;14820;48.682;8.890;2023-09-12T14:23:30;28.90;99.90
26224;DHT22;14820;48.682;8.890;2023-09-12T14:25:56;28.90;99.90
26224;DHT22;14820;48.682;8.890;2023-09-12T14:28:21;28.80;99.90
26224;DHT22;14820;48.682;8.890;2023-09-12T14:30:47;28.80;99.90
26224;DHT22;14820;48.682;8.890;2023-09-12T14:33:14;28.70;99.90
26224;DHT22;14820;48.682;8.890;2023-09-12T14:35:40;28.60;99.90
26224;DHT22;14820;48.682;8.890;2023-09-12T14:38:07;28.50;99.90
26224;DHT22;14820;48.682;8.890;2023-09-12T14:40:33;28.50;99.90
26224;DHT22;14820;48.682;8.890;2023-09-12T14:42:59;28.40;99.90
26224;DHT22;14820;48.682;8.890;2023-09-12T14:45:27;28.40;99.90
26224;DHT22;14820;48.682;8.890;2023-09-12T14:47:53;28.30;99.90
26224;DHT22;14820;48.682;8.890;2023-09-12T14:50:21;28.20;99.90
26224;DHT22;14820;48.682;8.890;2023-09-12T14:52:49;28.20;99.90
26224;DHT22;14820;48.682;8.890;2023-09-12T14:55:15;28.20;99.90
26224;DHT22;14820;48.682;8.890;2023-09-12T14:57:41;28.20;99.90
26224;DHT22;14820;48.682;8.890;2023-09-12T15:00:07;28.20;99.90
26224;DHT22;14820;48.682;8.890;2023-09-12T15:02:33;28.10;99.90
26224;DHT22;14820;48.682;8.890;2023-09-12T15:05:00;28.10;99.90
26224;DHT22;14820;48.682;8.890;2023-09-12T15:07:26;28.10;99.90
26224;DHT22;14820;48.682;8.890;2023-09-12T15:09:52;28.10;99.90
26224;DHT22;14820;48.682;8.890;2023-09-12T15:12:17;28.10;99.90
26224;DHT22;14820;48.682;8.890;2023-09-12T15:14:43;28.10;99.90
26224;DHT22;14820;48.682;8.890;2023-09-12T15:17:09;28.10;99.90
26224;DHT22;14820;48.682;8.890;2023-09-12T15:19:35;28.10;99.90
26224;DHT22;14820;48.682;8.890;2023-09-12T15:22:01;28.00;99.90
26224;DHT22;14820;48.682;8.890;2023-09-12T15:24:27;28.00;99.90
26224;DHT22;14820;48.682;8.890;2023-09-12T15:26:53;28.10;99.90
26224;DHT22;14820;48.682;8.890;2023-09-12T15:29:18;28.00;99.90
26224;DHT22;14820;48.682;8.890;2023-09-12T15:31:44;27.90;99.90
26224;DHT22;14820;48.682;8.890;2023-09-12T15:34:10;27.90;99.90
26224;DHT22;14820;48.682;8.890;2023-09-12T15:36:44;27.90;99.90
26224;DHT22;14820;48.682;8.890;2023-09-12T15:39:10;27.80;99.90
26224;DHT22;14820;48.682;8.890;2023-09-12T15:41:36;27.80;99.90
26224;DHT22;14820;48.682;8.890;2023-09-12T15:44:02;27.80;99.90
26224;DHT22;14820;48.682;8.890;2023-09-12T15:46:31;27.80;99.90
26224;DHT22;14820;48.682;8.890;2023-09-12T15:48:57;27.80;99.90
26224;DHT22;14820;48.682;8.890;2023-09-12T15:51:23;27.80;99.90
26224;DHT22;14820;48.682;8.890;2023-09-12T15:53:49;27.70;99.90
26224;DHT22;14820;48.682;8.890;2023-09-12T15:56:14;27.70;99.90
26224;DHT22;14820;48.682;8.890;2023-09-12T15:58:40;27.70;99.90
26224;DHT22;14820;48.682;8.890;2023-09-12T16:01:06;27.70;99.90
26224;DHT22;14820;48.682;8.890;2023-09-12T16:03:32;27.70;99.90
26224;DHT22;14820;48.682;8.890;2023-09-12T16:05:57;27.70;99.90
26224;DHT22;14820;48.682;8.890;2023-09-12T16:08:23;27.80;99.90
26224;DHT22;14820;48.682;8.890;2023-09-12T16:10:49;27.90;99.90
26224;DHT22;14820;48.682;8.890;2023-09-12T16:13:16;27.80;99.90
26224;DHT22;14820;48.682;8.890;2023-09-12T16:15:41;27.80;99.90
26224;DHT22;14820;48.682;8.890;2023-09-12T16:18:07;27.80;99.90
26224;DHT22;14820;48.682;8.890;2023-09-12T16:20:32;27.80;99.90
26224;DHT22;14820;48.682;8.890;2023-09-12T16:22:58;27.70;99.90
26224;DHT22;14820;48.682;8.890;2023-09-12T16:25:24;27.70;99.90
26224;DHT22;14820;48.682;8.890;2023-09-12T16:27:50;27.60;99.90
26224;DHT22;14820;48.682;8.890;2023-09-12T16:30:16;27.50;99.90
26224;DHT22;14820;48.682;8.890;2023-09-12T16:32:42;27.50;99.90
26224;DHT22;14820;48.682;8.890;2023-09-12T16:35:08;27.50;99.90
26224;DHT22;14820;48.682;8.890;2023-09-12T16:37:34;27.50;99.90
26224;DHT22;14820;48.682;8.890;2023-09-12T16:40:00;27.30;99.90
26224;DHT22;14820;48.682;8.890;2023-09-12T16:42:26;27.10;99.90
26224;DHT22;14820;48.682;8.890;2023-09-12T16:44:52;26.90;99.90
26224;DHT22;14820;48.682;8.890;2023-09-12T16:47:18;26.60;99.90
26224;DHT22;14820;48.682;8.890;2023-09-12T16:49:45;26.40;99.90
26224;DHT22;14820;48.682;8.890;2023-09-12T16:52:11;26.20;99.90
26224;DHT22;14820;48.682;8.890;2023-09-12T16:54:38;26.00;99.90
26224;DHT22;14820;48.682;8.890;2023-09-12T16:57:05;26.00;99.90
26224;DHT22;14820;48.682;8.890;2023-09-12T16:59:39;25.90;99.90
26224;DHT22;14820;48.682;8.890;2023-09-12T17:02:04;25.90;99.90
26224;DHT22;14820;48.682;8.890;2023-09-12T17:06:56;25.70;99.90
26224;DHT22;14820;48.682;8.890;2023-09-12T17:09:22;25.60;99.90
26224;DHT22;14820;48.682;8.890;2023-09-12T17:11:48;25.50;99.90
26224;DHT22;14820;48.682;8.890;2023-09-12T17:14:13;25.50;99.90
26224;DHT22;14820;48.682;8.890;2023-09-12T17:16:39;25.40;99.90
26224;DHT22;14820;48.682;8.890;2023-09-12T17:19:05;25.40;99.90
26224;DHT22;14820;48.682;8.890;2023-09-12T17:21:32;25.50;99.90
26224;DHT22;14820;48.682;8.890;2023-09-12T17:23:58;25.30;99.90
26224;DHT22;14820;48.682;8.890;2023-09-12T17:26:24;25.30;99.90
26224;DHT22;14820;48.682;8.890;2023-09-12T17:31:17;25.20;99.90
26224;DHT22;14820;48.682;8.890;2023-09-12T17:33:43;25.10;99.90
26224;DHT22;14820;48.682;8.890;2023-09-12T17:41:02;24.80;99.90
26224;DHT22;14820;48.682;8.890;2023-09-12T17:43:28;24.90;99.90
26224;DHT22;14820;48.682;8.890;2023-09-12T17:45:55;24.80;99.90
26224;DHT22;14820;48.682;8.890;2023-09-12T17:48:21;24.70;99.90
26224;DHT22;14820;48.682;8.890;2023-09-12T17:53:19;24.40;99.90
26224;DHT22;14820;48.682;8.890;2023-09-12T17:55:45;24.40;99.90
26224;DHT22;14820;48.682;8.890;2023-09-12T17:58:11;24.30;99.90
26224;DHT22;14820;48.682;8.890;2023-09-12T18:00:36;24.30;99.90
26224;DHT22;14820;48.682;8.890;2023-09-12T18:03:02;24.20;99.90
26224;DHT22;14820;48.682;8.890;2023-09-12T18:05:28;24.20;99.90
26224;DHT22;14820;48.682;8.890;2023-09-12T18:07:54;24.10;99.90
26224;DHT22;14820;48.682;8.890;2023-09-12T18:10:21;24.10;99.90
26224;DHT22;14820;48.682;8.890;2023-09-12T18:12:48;24.00;99.90
26224;DHT22;14820;48.682;8.890;2023-09-12T18:15:14;23.90;99.90
26224;DHT22;14820;48.682;8.890;2023-09-12T18:17:39;23.90;99.90
26224;DHT22;14820;48.682;8.890;2023-09-12T18:20:06;23.80;99.90
26224;DHT22;14820;48.682;8.890;2023-09-12T18:24:58;23.70;99.90
26224;DHT22;14820;48.682;8.890;2023-09-12T18:27:26;23.60;99.90
26224;DHT22;14820;48.682;8.890;2023-09-12T18:29:52;23.60;99.90
26224;DHT22;14820;48.682;8.890;2023-09-12T18:32:18;23.60;99.90
26224;DHT22;14820;48.682;8.890;2023-09-12T18:34:43;23.50;99.90
26224;DHT22;14820;48.682;8.890;2023-09-12T18:37:09;23.40;99.90
26224;DHT22;14820;48.682;8.890;2023-09-12T18:39:37;23.50;99.90
26224;DHT22;14820;48.682;8.890;2023-09-12T18:42:03;23.20;99.90
26224;DHT22;14820;48.682;8.890;2023-09-12T18:44:29;23.20;99.90
26224;DHT22;14820;48.682;8.890;2023-09-12T18:46:55;23.10;99.90
26224;DHT22;14820;48.682;8.890;2023-09-12T18:49:20;23.10;99.90
26224;DHT22;14820;48.682;8.890;2023-09-12T18:51:46;23.00;99.90
26224;DHT22;14820;48.682;8.890;2023-09-12T18:54:21;23.00;99.90
26224;DHT22;14820;48.682;8.890;2023-09-12T18:56:48;23.10;99.90
26224;DHT22;14820;48.682;8.890;2023-09-12T19:01:42;22.90;99.90
26224;DHT22;14820;48.682;8.890;2023-09-12T19:04:25;22.80;99.90
26224;DHT22;14820;48.682;8.890;2023-09-12T19:06:52;22.80;99.90
26224;DHT22;14820;48.682;8.890;2023-09-12T19:09:18;22.80;99.90
26224;DHT22;14820;48.682;8.890;2023-09-12T19:58:15;22.10;99.90
26224;DHT22;14820;48.682;8.890;2023-09-12T20:00:41;22.00;99.90
26224;DHT22;14820;48.682;8.890;2023-09-12T20:03:08;22.00;99.90
26224;DHT22;14820;48.682;8.890;2023-09-12T20:05:35;22.00;99.90
26224;DHT22;14820;48.682;8.890;2023-09-12T20:08:01;21.90;99.90
26224;DHT22;14820;48.682;8.890;2023-09-12T20:10:27;21.90;99.90
26224;DHT22;14820;48.682;8.890;2023-09-12T20:12:54;21.90;99.90
26224;DHT22;14820;48.682;8.890;2023-09-12T20:15:22;21.90;99.90